Pearce, Arizona
Current Conditions -  °F | °C
As of 5:56 PM on Tuesday 21 Oct 2014 (Local Time) from KDUG Reporting Station
Clear Clear  
Wind Chill: 70°   Ceiling: Unl
Heat Index: 70°   Visibility: 10mi
Dew Point: 40°   Wind: 5mph
Humidity: 33%   Direction: 180°S
Pressure: 29.97"   Gusts: NA
Location:  31.91°N, 109.82°W
Report Text: KDUG 220056Z AUTO 18004KT 10SM CLR 21/04 A2997 RMK AO2 SLP100 T02110044
Loading
Personal Weather Stations






























Interactive Weather Map
Tropical Storm Tracking
New forecast layout! Learn more

10-Day Weather Forecast

Advertisements
Track Severe Weather on mobile